Time;durP1;ratioP1;P1;durP2;ratioP2;P2;SDS_P1;SDS_P2;PMS_P1;PMS_P2;Temp;Humidity;BMP_temperature;BMP_pressure;BME280_temperature;BME280_humidity;BME280_pressure;Samples;Min_cycle;Max_cycle;Signal;HPM_P1;HPM_P2
2021/06/23 00:00:32;;;;;;;29.60;7.78;;;;;;;;;;5098801;28;20380;-66
2021/06/23 00:02:58;;;;;;;22.85;5.55;;;;;;;;;;5116811;28;20020;-65
2021/06/23 00:05:25;;;;;;;27.38;6.05;;;;;;;;;;5098752;28;20020;-66
2021/06/23 00:07:51;;;;;;;;;;;;;;;;;;5098954;28;20023;-67
2021/06/23 00:10:18;;;;;;;30.52;6.43;;;;;;;;;;5116818;28;20316;-67
2021/06/23 00:12:44;;;;;;;23.92;6.93;;;;;;;;;;5116360;28;20486;-67
2021/06/23 00:15:12;;;;;;;23.55;6.43;;;;;;;;;;5098365;28;20035;-67
2021/06/23 00:17:38;;;;;;;28.42;5.85;;;;;;;;;;5116544;28;20020;-66
2021/06/23 00:20:06;;;;;;;36.73;9.90;;;;;;;;;;5097985;28;20073;-67
2021/06/23 00:22:32;;;;;;;27.35;6.63;;;;;;;;;;5098071;28;20068;-66
2021/06/23 00:24:58;;;;;;;41.40;7.23;;;;;;;;;;5098059;28;20026;-65
2021/06/23 00:27:25;;;;;;;32.88;6.88;;;;;;;;;;5115751;28;20239;-66
2021/06/23 00:29:51;;;;;;;37.47;8.63;;;;;;;;;;5098679;28;20031;-68
2021/06/23 00:32:19;;;;;;;43.00;7.80;;;;;;;;;;5116239;28;20102;-66
2021/06/23 00:34:45;;;;;;;38.70;6.72;;;;;;;;;;5115813;28;20743;-63
2021/06/23 00:37:11;;;;;;;34.77;7.37;;;;;;;;;;5116469;28;20055;-67
2021/06/23 00:39:38;;;;;;;30.95;8.43;;;;;;;;;;5115805;28;20027;-68
2021/06/23 00:42:05;;;;;;;34.78;6.57;;;;;;;;;;5097874;28;20038;-66
2021/06/23 00:44:31;;;;;;;;;;;;;;;;;;5117080;28;20024;-66
2021/06/23 00:46:57;;;;;;;32.58;6.68;;;;;;;;;;5115754;28;19919;-66
2021/06/23 00:49:24;;;;;;;35.87;5.47;;;;;;;;;;5115974;28;20031;-68
2021/06/23 00:51:50;;;;;;;43.08;9.43;;;;;;;;;;5116106;28;20452;-67
2021/06/23 00:54:17;;;;;;;30.77;6.65;;;;;;;;;;5115755;28;20035;-67
2021/06/23 00:56:43;;;;;;;30.47;8.07;;;;;;;;;;5115573;28;20042;-65
2021/06/23 00:59:10;;;;;;;34.33;6.30;;;;;;;;;;5116003;28;20031;-67
2021/06/23 01:01:38;;;;;;;47.40;7.57;;;;;;;;;;5115473;28;20022;-66
2021/06/23 01:04:05;;;;;;;29.33;7.20;;;;;;;;;;5115743;28;20103;-67
2021/06/23 01:06:32;;;;;;;28.45;6.68;;;;;;;;;;5115326;28;20027;-66
2021/06/23 01:08:57;;;;;;;;;;;;;;;;;;5115355;28;20110;-66
2021/06/23 01:11:24;;;;;;;28.25;5.63;;;;;;;;;;5115572;28;20060;-66
2021/06/23 01:14:00;;;;;;;32.35;5.82;;;;;;;;;;5115742;28;20023;-69
2021/06/23 01:16:28;;;;;;;23.07;6.73;;;;;;;;;;5114947;28;20492;-64
2021/06/23 01:18:54;;;;;;;34.72;6.32;;;;;;;;;;5115339;28;20033;-67
2021/06/23 01:21:20;;;;;;;29.05;5.13;;;;;;;;;;5115689;28;20027;-68
2021/06/23 01:23:46;;;;;;;28.95;6.65;;;;;;;;;;5114754;28;20020;-66
2021/06/23 01:26:13;;;;;;;30.63;5.40;;;;;;;;;;5115245;28;20029;-65
2021/06/23 01:28:39;;;;;;;29.15;5.78;;;;;;;;;;5114660;28;20027;-66
2021/06/23 01:31:05;;;;;;;26.27;6.20;;;;;;;;;;5096802;28;20024;-66
2021/06/23 01:33:32;;;;;;;28.70;6.13;;;;;;;;;;5114887;28;20030;-69
2021/06/23 01:35:58;;;;;;;29.15;7.32;;;;;;;;;;5114904;28;20247;-66
2021/06/23 01:38:25;;;;;;;38.38;8.85;;;;;;;;;;5096893;28;20035;-68
2021/06/23 01:40:52;;;;;;;39.00;8.07;;;;;;;;;;5115376;28;20098;-67
2021/06/23 01:43:19;;;;;;;33.88;6.32;;;;;;;;;;5096340;28;20020;-67
2021/06/23 01:45:46;;;;;;;38.88;6.20;;;;;;;;;;5096496;28;20414;-67
2021/06/23 01:48:15;;;;;;;34.40;5.95;;;;;;;;;;5114959;28;20048;-70
2021/06/23 01:50:42;;;;;;;32.53;7.93;;;;;;;;;;5096108;28;20031;-67
2021/06/23 01:53:08;;;;;;;25.98;6.00;;;;;;;;;;5114523;28;20026;-66
2021/06/23 01:55:34;;;;;;;30.25;6.45;;;;;;;;;;5114672;28;20024;-69
2021/06/23 01:58:12;;;;;;;33.00;7.50;;;;;;;;;;5114404;28;20070;-67
2021/06/23 02:00:46;;;;;;;24.35;6.43;;;;;;;;;;5114634;28;20055;-68
2021/06/23 02:03:16;;;;;;;31.40;7.72;;;;;;;;;;5114185;28;20442;-66
2021/06/23 02:05:44;;;;;;;38.28;5.97;;;;;;;;;;5114085;28;20047;-67
2021/06/23 02:08:31;;;;;;;35.75;6.82;;;;;;;;;;5114447;28;20024;-68
2021/06/23 02:11:16;;;;;;;43.08;6.50;;;;;;;;;;5113989;28;20030;-67
2021/06/23 02:13:42;;;;;;;42.28;8.02;;;;;;;;;;5114308;28;20027;-66
2021/06/23 02:16:12;;;;;;;41.25;8.32;;;;;;;;;;5114109;28;20024;-67
2021/06/23 02:18:38;;;;;;;33.45;8.07;;;;;;;;;;5113834;28;20024;-69
2021/06/23 02:21:05;;;;;;;33.93;7.77;;;;;;;;;;5113878;28;20042;-66
2021/06/23 02:23:34;;;;;;;36.58;6.57;;;;;;;;;;5113828;28;20357;-67
2021/06/23 02:26:00;;;;;;;37.95;7.43;;;;;;;;;;5095483;28;20016;-66
2021/06/23 02:28:26;;;;;;;47.20;6.53;;;;;;;;;;5095806;28;20027;-67
2021/06/23 02:30:52;;;;;;;35.60;7.82;;;;;;;;;;5113922;28;20027;-68
2021/06/23 02:33:19;;;;;;;35.05;6.00;;;;;;;;;;5113666;28;20035;-67
2021/06/23 02:35:45;;;;;;;40.92;9.18;;;;;;;;;;5113598;28;20028;-65
2021/06/23 02:38:12;;;;;;;43.20;7.15;;;;;;;;;;5095510;28;20496;-68
2021/06/23 02:40:38;;;;;;;38.10;8.98;;;;;;;;;;5113573;28;20160;-68
2021/06/23 02:43:05;;;;;;;45.77;9.83;;;;;;;;;;5095437;28;20027;-66
2021/06/23 02:45:31;;;;;;;;;;;;;;;;;;5113837;28;20240;-68
2021/06/23 02:47:57;;;;;;;41.53;7.70;;;;;;;;;;5114210;28;19965;-67
2021/06/23 02:50:24;;;;;;;35.97;6.80;;;;;;;;;;5094893;28;20372;-66
2021/06/23 02:52:50;;;;;;;35.45;8.30;;;;;;;;;;5112997;28;20022;-67
2021/06/23 02:55:19;;;;;;;30.63;6.50;;;;;;;;;;5113654;28;20020;-65
2021/06/23 02:57:47;;;;;;;35.05;6.40;;;;;;;;;;5113057;28;20736;-70
2021/06/23 03:00:14;;;;;;;36.40;7.10;;;;;;;;;;5112833;28;20020;-67
2021/06/23 03:02:40;;;;;;;39.83;7.00;;;;;;;;;;5113195;28;20023;-65
2021/06/23 03:05:06;;;;;;;37.42;7.13;;;;;;;;;;5094601;28;20051;-67
2021/06/23 03:07:32;;;;;;;42.17;8.55;;;;;;;;;;5112898;28;20034;-66
2021/06/23 03:10:09;;;;;;;35.07;7.20;;;;;;;;;;5095082;28;20027;-66
2021/06/23 03:12:35;;;;;;;28.30;6.15;;;;;;;;;;5113417;28;20251;-65
2021/06/23 03:15:02;;;;;;;30.42;7.07;;;;;;;;;;5113041;28;20027;-68
2021/06/23 03:17:28;;;;;;;34.70;6.85;;;;;;;;;;5112984;28;20491;-67
2021/06/23 03:19:54;;;;;;;23.83;6.20;;;;;;;;;;5094871;28;20044;-67
2021/06/23 03:22:20;;;;;;;30.87;6.20;;;;;;;;;;5113005;28;20027;-66
2021/06/23 03:24:46;;;;;;;29.50;6.23;;;;;;;;;;5113008;28;20244;-66
2021/06/23 03:27:12;;;;;;;40.92;6.80;;;;;;;;;;5095679;28;20106;-65
2021/06/23 03:29:39;;;;;;;33.03;8.73;;;;;;;;;;5112573;28;20027;-67
2021/06/23 03:32:07;;;;;;;31.95;7.57;;;;;;;;;;5094618;28;20123;-66
2021/06/23 03:34:33;;;;;;;32.28;7.43;;;;;;;;;;5112054;28;20492;-67
2021/06/23 03:37:00;;;;;;;33.20;8.32;;;;;;;;;;5113202;28;20525;-66
2021/06/23 03:39:27;;;;;;;33.63;7.70;;;;;;;;;;5112800;28;20055;-66
2021/06/23 03:41:53;;;;;;;;;;;;;;;;;;5094492;28;20073;-67
2021/06/23 03:44:19;;;;;;;35.43;7.07;;;;;;;;;;5112939;28;20310;-68
2021/06/23 03:46:45;;;;;;;29.70;6.20;;;;;;;;;;5113076;28;20630;-66
2021/06/23 03:49:11;;;;;;;32.30;6.40;;;;;;;;;;5094396;28;20023;-67
2021/06/23 03:51:37;;;;;;;31.50;7.30;;;;;;;;;;5112785;28;20388;-68
2021/06/23 03:54:03;;;;;;;23.50;5.15;;;;;;;;;;5113214;28;20024;-64
2021/06/23 03:56:30;;;;;;;36.35;7.10;;;;;;;;;;5112960;28;20480;-67
2021/06/23 03:58:56;;;;;;;30.27;6.28;;;;;;;;;;5112649;28;20015;-65
2021/06/23 04:01:22;;;;;;;35.63;9.17;;;;;;;;;;5094579;28;20356;-64
2021/06/23 04:03:48;;;;;;;32.92;7.05;;;;;;;;;;5113014;28;20038;-66
2021/06/23 04:06:14;;;;;;;34.17;8.20;;;;;;;;;;5094702;28;20470;-68
2021/06/23 04:08:41;;;;;;;24.27;6.23;;;;;;;;;;5113171;28;20015;-67
2021/06/23 04:11:07;;;;;;;34.07;7.73;;;;;;;;;;5111789;28;20046;-67
2021/06/23 04:13:33;;;;;;;37.95;6.80;;;;;;;;;;5112926;28;20028;-67
2021/06/23 04:15:59;;;;;;;32.80;6.53;;;;;;;;;;5115102;28;20022;-65
2021/06/23 04:18:25;;;;;;;25.83;7.57;;;;;;;;;;5114540;28;20424;-68
2021/06/23 04:20:51;;;;;;;30.70;6.23;;;;;;;;;;5114305;28;20104;-65
2021/06/23 04:23:17;;;;;;;18.60;5.77;;;;;;;;;;5114704;28;20019;-66
2021/06/23 04:25:43;;;;;;;38.10;8.47;;;;;;;;;;5114368;28;20020;-65
2021/06/23 04:28:10;;;;;;;20.27;5.37;;;;;;;;;;5114941;28;20110;-65
2021/06/23 04:30:36;;;;;;;30.57;6.63;;;;;;;;;;5114408;28;20149;-65
2021/06/23 04:33:03;;;;;;;39.10;6.07;;;;;;;;;;5116017;28;20724;-67
2021/06/23 04:35:29;;;;;;;26.15;7.32;;;;;;;;;;5116509;28;20020;-65
2021/06/23 04:37:56;;;;;;;33.80;7.77;;;;;;;;;;5115875;28;20031;-65
2021/06/23 04:40:22;;;;;;;22.30;6.53;;;;;;;;;;5116502;28;20023;-65
2021/06/23 04:42:48;;;;;;;36.27;7.10;;;;;;;;;;5098151;28;20044;-66
2021/06/23 04:45:14;;;;;;;30.13;5.97;;;;;;;;;;5115885;28;20348;-69
2021/06/23 04:47:41;;;;;;;29.80;6.88;;;;;;;;;;5116242;28;20051;-69
2021/06/23 04:50:08;;;;;;;34.03;7.33;;;;;;;;;;5115944;28;20144;-69
2021/06/23 04:52:35;;;;;;;22.77;5.53;;;;;;;;;;5115453;28;20046;-69
2021/06/23 04:55:01;;;;;;;25.92;5.40;;;;;;;;;;5115720;28;20024;-68
2021/06/23 04:57:27;;;;;;;20.85;5.03;;;;;;;;;;5115889;28;20464;-69
2021/06/23 04:59:53;;;;;;;31.10;5.80;;;;;;;;;;5115531;28;20106;-68
2021/06/23 05:02:19;;;;;;;30.27;6.67;;;;;;;;;;5115771;28;20031;-70
2021/06/23 05:04:46;;;;;;;31.10;6.93;;;;;;;;;;5098136;28;20121;-68
2021/06/23 05:07:13;;;;;;;19.88;5.97;;;;;;;;;;5097001;28;20171;-69
2021/06/23 05:09:39;;;;;;;22.43;6.03;;;;;;;;;;5115509;28;20027;-69
2021/06/23 05:12:09;;;;;;;29.13;6.72;;;;;;;;;;5097211;28;20023;-70
2021/06/23 05:14:36;;;;;;;18.45;4.43;;;;;;;;;;5096782;28;20024;-69
2021/06/23 05:17:02;;;;;;;21.13;5.40;;;;;;;;;;5116206;28;20372;-69
2021/06/23 05:19:29;;;;;;;21.80;4.53;;;;;;;;;;5096815;28;20437;-67
2021/06/23 05:21:56;;;;;;;22.80;5.65;;;;;;;;;;5097046;28;20531;-70
2021/06/23 05:24:23;;;;;;;28.55;6.32;;;;;;;;;;5114973;28;20380;-69
2021/06/23 05:26:49;;;;;;;29.50;7.17;;;;;;;;;;5113675;28;20398;-70
2021/06/23 05:29:15;;;;;;;23.50;4.33;;;;;;;;;;5115051;28;20144;-69
2021/06/23 05:31:41;;;;;;;18.03;5.13;;;;;;;;;;5115355;28;20321;-70
2021/06/23 05:34:07;;;;;;;30.07;6.33;;;;;;;;;;5097084;28;20019;-69
2021/06/23 05:36:33;;;;;;;36.33;7.10;;;;;;;;;;5096730;28;20251;-68
2021/06/23 05:38:59;;;;;;;25.77;5.23;;;;;;;;;;5114976;28;20243;-69
2021/06/23 05:41:25;;;;;;;27.33;5.20;;;;;;;;;;5114271;28;20609;-69
2021/06/23 05:43:51;;;;;;;23.67;5.20;;;;;;;;;;5114619;28;20024;-69
2021/06/23 05:46:18;;;;;;;29.23;4.67;;;;;;;;;;5114635;28;20275;-70
2021/06/23 05:48:44;;;;;;;22.17;5.78;;;;;;;;;;5114584;28;20252;-68
2021/06/23 05:51:10;;;;;;;21.10;4.78;;;;;;;;;;5114452;28;20024;-69
2021/06/23 05:53:36;;;;;;;21.05;5.40;;;;;;;;;;5114512;28;20352;-68
2021/06/23 05:56:02;;;;;;;24.92;4.95;;;;;;;;;;5096232;28;20028;-69
2021/06/23 05:58:28;;;;;;;15.35;4.80;;;;;;;;;;5114748;28;20073;-68
2021/06/23 06:00:55;;;;;;;19.67;4.43;;;;;;;;;;5096310;28;20038;-67
2021/06/23 06:03:21;;;;;;;17.70;3.88;;;;;;;;;;5096015;28;20023;-66
2021/06/23 06:05:47;;;;;;;22.90;5.30;;;;;;;;;;5114279;28;20023;-69
2021/06/23 06:08:13;;;;;;;20.63;4.45;;;;;;;;;;5096092;28;20740;-69
2021/06/23 06:10:39;;;;;;;19.23;3.75;;;;;;;;;;5095620;28;20511;-69
2021/06/23 06:13:06;;;;;;;15.98;3.47;;;;;;;;;;5114381;28;20026;-70
2021/06/23 06:15:33;;;;;;;18.27;3.22;;;;;;;;;;5113865;28;20429;-70
2021/06/23 06:17:59;;;;;;;;;;;;;;;;;;5114211;28;20406;-67
2021/06/23 06:20:25;;;;;;;21.90;3.80;;;;;;;;;;5095799;28;19908;-70
2021/06/23 06:22:51;;;;;;;16.67;3.38;;;;;;;;;;5113450;28;20023;-70
2021/06/23 06:25:17;;;;;;;12.85;3.85;;;;;;;;;;5113746;28;20023;-70
2021/06/23 06:27:43;;;;;;;19.65;3.40;;;;;;;;;;5113933;28;20391;-69
2021/06/23 06:30:09;;;;;;;23.08;3.90;;;;;;;;;;5095345;28;20054;-66
2021/06/23 06:32:35;;;;;;;16.67;2.92;;;;;;;;;;5113825;28;20024;-64
2021/06/23 06:35:02;;;;;;;14.98;3.20;;;;;;;;;;5114198;28;20026;-66
2021/06/23 06:37:28;;;;;;;14.90;3.00;;;;;;;;;;5113587;28;20023;-65
2021/06/23 06:39:54;;;;;;;13.40;3.15;;;;;;;;;;5113956;28;20038;-65
2021/06/23 06:42:20;;;;;;;;;;;;;;;;;;5114330;28;20016;-66
2021/06/23 06:44:47;;;;;;;13.68;3.83;;;;;;;;;;5113491;28;19910;-66
2021/06/23 06:47:13;;;;;;;16.25;2.90;;;;;;;;;;5113419;28;20108;-64
2021/06/23 06:49:39;;;;;;;16.23;3.25;;;;;;;;;;5114200;28;20034;-67
2021/06/23 06:52:05;;;;;;;13.93;3.20;;;;;;;;;;5113572;28;20430;-65
2021/06/23 06:54:31;;;;;;;11.55;2.58;;;;;;;;;;5095306;28;20035;-68
2021/06/23 06:56:58;;;;;;;19.08;2.72;;;;;;;;;;5113490;28;20027;-68
2021/06/23 06:59:24;;;;;;;17.27;2.75;;;;;;;;;;5113439;28;20027;-65
2021/06/23 07:01:50;;;;;;;16.25;3.05;;;;;;;;;;5095188;28;20031;-67
2021/06/23 07:04:16;;;;;;;12.65;3.97;;;;;;;;;;5095998;28;20015;-64
2021/06/23 07:06:46;;;;;;;16.00;3.30;;;;;;;;;;5113360;28;20027;-67
2021/06/23 07:09:13;;;;;;;15.55;2.25;;;;;;;;;;5113044;28;20445;-65
2021/06/23 07:11:39;;;;;;;;;;;;;;;;;;5113301;28;20418;-68
2021/06/23 07:14:05;;;;;;;18.30;2.47;;;;;;;;;;5113201;28;19952;-68
2021/06/23 07:16:31;;;;;;;12.98;2.67;;;;;;;;;;5113494;28;20024;-66
2021/06/23 07:18:58;;;;;;;20.70;3.28;;;;;;;;;;5112894;28;20464;-68
2021/06/23 07:21:24;;;;;;;9.10;2.97;;;;;;;;;;5113340;28;20055;-66
2021/06/23 07:23:54;;;;;;;16.02;2.92;;;;;;;;;;5113320;28;20016;-66
2021/06/23 07:26:20;;;;;;;20.13;3.65;;;;;;;;;;5113108;28;20022;-67
2021/06/23 07:28:53;;;;;;;12.32;2.97;;;;;;;;;;5113292;28;20027;-67
2021/06/23 07:31:29;;;;;;;20.35;2.80;;;;;;;;;;5112942;28;20384;-66
2021/06/23 07:34:33;;;;;;;17.83;2.53;;;;;;;;;;5094911;28;20118;-65
2021/06/23 07:36:46;;;;;;;12.13;1.95;;;;;;;;;;5112050;28;20039;-65
2021/06/23 07:39:14;;;;;;;4.95;1.27;;;;;;;;;;5113511;28;20016;-67
2021/06/23 07:41:41;;;;;;;11.27;1.95;;;;;;;;;;5112976;28;20027;-66
2021/06/23 07:44:09;;;;;;;11.75;1.58;;;;;;;;;;5113265;28;20023;-67
2021/06/23 07:46:38;;;;;;;8.50;1.50;;;;;;;;;;5112612;28;20058;-64
2021/06/23 07:49:08;;;;;;;14.65;2.90;;;;;;;;;;5113179;28;20023;-67
2021/06/23 07:54:15;;;;;;;5.72;1.77;;;;;;;;;;5116999;28;20388;-65
2021/06/23 08:12:59;;;;;;;10.98;3.10;;;;;;;;;;5116457;28;20038;-65
2021/06/23 08:15:26;;;;;;;8.68;2.25;;;;;;;;;;5116393;28;20019;-64
2021/06/23 08:17:53;;;;;;;13.68;1.52;;;;;;;;;;5116811;28;20020;-65
2021/06/23 08:20:19;;;;;;;13.50;1.83;;;;;;;;;;5116876;28;20027;-64
2021/06/23 08:22:45;;;;;;;13.07;1.75;;;;;;;;;;5116142;28;20023;-65
2021/06/23 08:25:12;;;;;;;8.55;1.38;;;;;;;;;;5116434;28;20023;-64
2021/06/23 08:27:38;;;;;;;13.90;2.00;;;;;;;;;;5115844;28;20392;-67
2021/06/23 08:30:04;;;;;;;;;;;;;;;;;;5115865;28;20028;-64
2021/06/23 08:32:30;;;;;;;;;;;;;;;;;;5115391;28;20281;-65
2021/06/23 08:34:56;;;;;;;12.73;2.40;;;;;;;;;;5114631;28;20321;-67
2021/06/23 08:37:22;;;;;;;13.95;2.00;;;;;;;;;;5096337;28;20418;-65
2021/06/23 08:39:48;;;;;;;8.02;2.35;;;;;;;;;;5114749;28;20468;-65
2021/06/23 08:42:14;;;;;;;6.75;1.65;;;;;;;;;;5114931;28;20038;-64
2021/06/23 08:44:41;;;;;;;23.13;2.63;;;;;;;;;;5114377;28;20027;-66
2021/06/23 08:47:07;;;;;;;14.15;2.15;;;;;;;;;;5113926;28;20108;-62
2021/06/23 08:49:34;;;;;;;9.30;1.85;;;;;;;;;;5114060;28;20012;-66
2021/06/23 08:52:00;;;;;;;13.82;2.58;;;;;;;;;;5114713;28;20526;-68
2021/06/23 08:54:27;;;;;;;10.68;1.75;;;;;;;;;;5114203;28;20461;-65
2021/06/23 08:56:54;;;;;;;10.88;1.60;;;;;;;;;;5114497;28;20043;-66
2021/06/23 08:59:20;;;;;;;12.35;3.70;;;;;;;;;;5114471;28;20044;-66
2021/06/23 09:01:49;;;;;;;11.52;2.25;;;;;;;;;;5094221;28;20016;-65
2021/06/23 09:04:16;;;;;;;13.23;3.53;;;;;;;;;;5114346;28;20019;-68
2021/06/23 09:06:42;;;;;;;11.43;2.22;;;;;;;;;;5116255;28;20054;-68
2021/06/23 09:09:27;;;;;;;14.32;2.33;;;;;;;;;;5115642;28;20026;-68
2021/06/23 09:11:54;;;;;;;18.23;2.90;;;;;;;;;;5115405;28;20083;-68
2021/06/23 09:14:21;;;;;;;10.48;3.00;;;;;;;;;;5115431;28;20024;-68
2021/06/23 09:17:07;;;;;;;11.27;2.47;;;;;;;;;;5115323;28;20069;-70
2021/06/23 09:19:43;;;;;;;19.90;4.50;;;;;;;;;;5115365;28;20016;-66
2021/06/23 09:22:28;;;;;;;16.42;2.70;;;;;;;;;;5097476;28;20020;-68
2021/06/23 09:24:54;;;;;;;18.10;3.75;;;;;;;;;;5115618;28;20110;-66
2021/06/23 09:27:22;;;;;;;12.75;3.03;;;;;;;;;;5115313;28;20028;-67
2021/06/23 09:29:51;;;;;;;12.07;2.85;;;;;;;;;;5114901;28;20401;-68
2021/06/23 09:32:17;;;;;;;13.38;3.47;;;;;;;;;;5114740;28;20039;-67
2021/06/23 09:34:47;;;;;;;16.67;3.38;;;;;;;;;;5115723;28;20019;-68
2021/06/23 09:37:27;;;;;;;18.27;2.70;;;;;;;;;;5114905;28;20460;-68
2021/06/23 09:40:10;;;;;;;17.20;2.63;;;;;;;;;;5114866;28;20031;-68
2021/06/23 09:42:41;;;;;;;13.85;2.40;;;;;;;;;;5114966;28;20079;-70
2021/06/23 09:45:08;;;;;;;19.60;3.17;;;;;;;;;;5114964;28;20024;-68
2021/06/23 09:47:38;;;;;;;15.38;2.85;;;;;;;;;;5114699;28;20056;-69
2021/06/23 09:50:05;;;;;;;18.23;2.72;;;;;;;;;;5115412;28;20050;-69
2021/06/23 09:52:31;;;;;;;20.23;2.85;;;;;;;;;;5114663;28;20031;-66
2021/06/23 09:55:00;;;;;;;16.70;2.80;;;;;;;;;;5114875;28;20023;-68
2021/06/23 09:57:26;;;;;;;17.58;3.85;;;;;;;;;;5096553;28;20119;-68
2021/06/23 09:59:59;;;;;;;;;;;;;;;;;;5114644;28;20027;-68
2021/06/23 10:02:29;;;;;;;13.38;3.17;;;;;;;;;;5115207;28;20464;-68
2021/06/23 10:05:15;;;;;;;23.00;2.88;;;;;;;;;;5114439;28;20426;-71
2021/06/23 10:07:44;;;;;;;17.83;3.83;;;;;;;;;;5112536;28;20031;-68
2021/06/23 10:10:11;;;;;;;24.80;3.20;;;;;;;;;;5114249;28;20032;-67
2021/06/23 10:12:38;;;;;;;20.63;3.30;;;;;;;;;;5095740;28;20063;-68
2021/06/23 10:15:03;;;;;;;;;;;;;;;;;;5114553;28;20023;-67
2021/06/23 10:17:30;;;;;;;18.63;4.03;;;;;;;;;;5114241;28;19998;-68
2021/06/23 10:19:57;;;;;;;23.88;3.58;;;;;;;;;;5096024;28;20077;-67
2021/06/23 10:22:23;;;;;;;24.40;4.50;;;;;;;;;;5113712;28;20024;-67
2021/06/23 10:24:53;;;;;;;15.93;3.22;;;;;;;;;;5113352;28;20022;-66
2021/06/23 10:27:20;;;;;;;11.55;3.53;;;;;;;;;;5114019;28;20019;-67
2021/06/23 10:29:48;;;;;;;15.77;2.60;;;;;;;;;;5113615;28;20035;-68
2021/06/23 10:32:14;;;;;;;28.17;3.38;;;;;;;;;;5113863;28;20020;-66
2021/06/23 10:34:42;;;;;;;11.77;2.00;;;;;;;;;;5095589;28;20019;-67
2021/06/23 10:37:09;;;;;;;27.35;3.50;;;;;;;;;;5113383;28;20020;-67
2021/06/23 10:39:36;;;;;;;13.75;3.05;;;;;;;;;;5112682;28;20027;-68
2021/06/23 10:42:04;;;;;;;20.52;3.65;;;;;;;;;;5112242;28;20016;-67
2021/06/23 10:44:35;;;;;;;16.55;4.13;;;;;;;;;;5112139;28;20024;-66
2021/06/23 10:47:03;;;;;;;17.92;4.00;;;;;;;;;;5111698;28;20074;-67
2021/06/23 10:49:39;;;;;;;17.95;2.25;;;;;;;;;;5109625;28;20016;-66
2021/06/23 10:52:21;;;;;;;17.60;2.22;;;;;;;;;;5112022;28;20460;-68
2021/06/23 10:54:49;;;;;;;12.63;2.85;;;;;;;;;;5089262;28;20044;-70
2021/06/23 10:57:24;;;;;;;18.33;2.65;;;;;;;;;;5091366;28;20053;-69
2021/06/23 10:59:52;;;;;;;22.73;3.72;;;;;;;;;;5090104;28;20020;-69
2021/06/23 11:02:18;;;;;;;20.77;3.08;;;;;;;;;;5075159;28;20454;-70
2021/06/23 11:05:04;;;;;;;31.08;5.25;;;;;;;;;;5093438;28;20020;-66
2021/06/23 11:07:30;;;;;;;;;;;;;;;;;;5093813;28;20024;-68
2021/06/23 11:10:35;;;;;;;21.95;4.82;;;;;;;;;;5092824;28;19957;-67
2021/06/23 11:13:01;;;;;;;;;;;;;;;;;;5071840;28;20507;-68
2021/06/23 11:15:34;;;;;;;16.85;3.25;;;;;;;;;;5093062;28;19904;-67
2021/06/23 11:18:16;;;;;;;18.10;3.40;;;;;;;;;;5092864;28;20023;-65
2021/06/23 11:20:43;;;;;;;21.70;4.28;;;;;;;;;;5092657;28;20389;-66
2021/06/23 11:23:29;;;;;;;14.27;3.47;;;;;;;;;;5092964;28;20115;-66
2021/06/23 11:25:55;;;;;;;22.58;3.13;;;;;;;;;;5091420;28;20534;-66
2021/06/23 11:28:25;;;;;;;23.60;3.65;;;;;;;;;;5092868;28;20108;-67
2021/06/23 11:30:51;;;;;;;19.52;3.05;;;;;;;;;;5092615;28;20020;-65
2021/06/23 11:33:30;;;;;;;15.90;3.80;;;;;;;;;;5092907;28;20464;-65
2021/06/23 11:36:07;;;;;;;20.92;5.05;;;;;;;;;;5092754;28;20459;-66
2021/06/23 11:38:35;;;;;;;15.95;3.28;;;;;;;;;;5092733;28;20035;-66
2021/06/23 11:41:02;;;;;;;19.38;3.05;;;;;;;;;;5092846;28;20032;-66
2021/06/23 11:43:28;;;;;;;19.80;3.33;;;;;;;;;;5092690;28;20024;-65
2021/06/23 11:45:54;;;;;;;;;;;;;;;;;;5092846;28;20233;-62
2021/06/23 11:48:21;;;;;;;18.17;3.15;;;;;;;;;;5092472;28;19911;-67
2021/06/23 11:50:47;;;;;;;15.30;3.33;;;;;;;;;;5092562;28;20032;-67
2021/06/23 11:53:14;;;;;;;16.80;3.40;;;;;;;;;;5092411;28;20021;-67
2021/06/23 11:55:41;;;;;;;15.75;2.80;;;;;;;;;;5092697;28;20028;-65
2021/06/23 11:58:07;;;;;;;20.67;3.17;;;;;;;;;;5092519;28;20020;-65
2021/06/23 12:00:33;;;;;;;;;;;;;;;;;;5092453;28;20028;-65
2021/06/23 12:03:00;;;;;;;15.73;3.00;;;;;;;;;;5092420;28;19904;-66
2021/06/23 12:05:27;;;;;;;12.02;3.00;;;;;;;;;;5092343;28;20372;-66
2021/06/23 12:07:53;;;;;;;21.15;3.58;;;;;;;;;;5092533;28;20103;-65
2021/06/23 12:10:19;;;;;;;;;;;;;;;;;;5092748;28;20039;-66
2021/06/23 12:12:47;;;;;;;15.00;3.08;;;;;;;;;;5092362;28;20002;-66
2021/06/23 12:15:15;;;;;;;14.90;3.28;;;;;;;;;;5092214;28;20350;-67
2021/06/23 12:17:41;;;;;;;11.82;3.13;;;;;;;;;;5092371;28;20020;-64
2021/06/23 12:20:07;;;;;;;;;;;;;;;;;;5074451;28;20028;-67
2021/06/23 12:22:34;;;;;;;18.17;3.90;;;;;;;;;;5091936;28;19904;-67
2021/06/23 12:25:00;;;;;;;;;;;;;;;;;;5092609;28;20158;-66
2021/06/23 12:27:26;;;;;;;18.00;2.92;;;;;;;;;;5092227;28;20356;-65
2021/06/23 12:29:52;;;;;;;14.20;3.10;;;;;;;;;;5092097;28;20028;-67
2021/06/23 12:32:18;;;;;;;10.90;1.83;;;;;;;;;;5091885;28;20032;-67
2021/06/23 12:34:44;;;;;;;18.45;2.20;;;;;;;;;;5091982;28;20016;-67
2021/06/23 12:37:10;;;;;;;15.50;2.47;;;;;;;;;;5094423;28;20020;-66
2021/06/23 12:39:36;;;;;;;;;;;;;;;;;;5096263;28;20103;-66
2021/06/23 12:42:02;;;;;;;12.52;2.67;;;;;;;;;;5094552;28;19936;-66
2021/06/23 12:44:28;;;;;;;;;;;;;;;;;;5094529;28;20047;-67
2021/06/23 12:46:55;;;;;;;13.85;2.03;;;;;;;;;;5093898;28;20367;-65
2021/06/23 12:49:21;;;;;;;11.60;2.03;;;;;;;;;;5094335;28;20056;-66
2021/06/23 12:51:47;;;;;;;8.80;1.75;;;;;;;;;;5093797;28;20024;-68
2021/06/23 12:54:13;;;;;;;;;;;;;;;;;;5094460;28;20034;-64
2021/06/23 12:56:40;;;;;;;11.65;2.45;;;;;;;;;;5094159;28;19994;-67
2021/06/23 12:59:06;;;;;;;;;;;;;;;;;;5095846;28;20039;-65
2021/06/23 13:01:32;;;;;;;12.82;1.92;;;;;;;;;;5095282;28;19904;-67
2021/06/23 13:03:58;;;;;;;;;;;;;;;;;;5095385;28;20027;-64
2021/06/23 13:06:24;;;;;;;12.38;2.85;;;;;;;;;;5095470;28;20343;-67
2021/06/23 13:08:50;;;;;;;13.93;1.98;;;;;;;;;;5091436;28;20020;-65
2021/06/23 13:11:16;;;;;;;8.57;1.70;;;;;;;;;;5092413;28;20097;-67
2021/06/23 13:13:42;;;;;;;;;;;;;;;;;;5092826;28;20047;-68
2021/06/23 13:16:14;;;;;;;18.65;2.70;;;;;;;;;;5091819;28;20376;-66
2021/06/23 13:18:40;;;;;;;17.48;2.40;;;;;;;;;;5089790;28;20019;-65
2021/06/23 13:21:06;;;;;;;;;;;;;;;;;;5093831;28;20027;-64
2021/06/23 13:23:32;;;;;;;8.00;2.08;;;;;;;;;;5093795;28;19904;-66
2021/06/23 13:25:58;;;;;;;9.80;1.75;;;;;;;;;;5093321;28;20069;-65
2021/06/23 13:28:26;;;;;;;;;;;;;;;;;;5094715;28;20031;-66
2021/06/23 13:30:52;;;;;;;10.90;1.85;;;;;;;;;;5093608;28;19912;-65
2021/06/23 13:33:18;;;;;;;11.20;2.00;;;;;;;;;;5093690;28;20376;-67
2021/06/23 13:35:44;;;;;;;11.77;2.20;;;;;;;;;;5094007;28;20035;-67
2021/06/23 13:38:10;;;;;;;8.88;2.15;;;;;;;;;;5094028;28;20107;-66
2021/06/23 13:40:37;;;;;;;8.27;1.80;;;;;;;;;;5093315;28;20020;-66
2021/06/23 13:43:03;;;;;;;14.93;2.42;;;;;;;;;;5094066;28;20020;-65
2021/06/23 13:45:29;;;;;;;12.35;1.90;;;;;;;;;;5093555;28;20052;-68
2021/06/23 13:47:55;;;;;;;;;;;;;;;;;;5092429;28;20123;-69
2021/06/23 13:50:21;;;;;;;16.88;1.88;;;;;;;;;;5093567;28;19970;-67
2021/06/23 13:52:48;;;;;;;10.13;2.33;;;;;;;;;;5093745;28;20020;-68
2021/06/23 13:55:23;;;;;;;13.13;2.35;;;;;;;;;;5093004;28;20059;-68
2021/06/23 13:57:53;;;;;;;15.32;1.88;;;;;;;;;;5093485;28;20028;-66
2021/06/23 14:00:19;;;;;;;17.35;3.08;;;;;;;;;;5093308;28;20452;-67
2021/06/23 14:02:45;;;;;;;17.38;1.80;;;;;;;;;;5092858;28;20027;-67
2021/06/23 14:05:11;;;;;;;12.20;3.00;;;;;;;;;;5093468;28;20150;-66
2021/06/23 14:07:38;;;;;;;8.30;2.75;;;;;;;;;;5093241;28;20027;-68
2021/06/23 14:10:04;;;;;;;;;;;;;;;;;;5074500;28;20071;-68
2021/06/23 14:12:30;;;;;;;9.90;2.45;;;;;;;;;;5093066;28;19953;-68
2021/06/23 14:14:56;;;;;;;18.38;3.65;;;;;;;;;;5093562;28;20039;-67
2021/06/23 14:17:25;;;;;;;7.50;2.03;;;;;;;;;;5092270;28;20465;-67
2021/06/23 14:19:51;;;;;;;9.40;2.67;;;;;;;;;;5092673;28;20037;-68
2021/06/23 14:22:18;;;;;;;10.27;2.00;;;;;;;;;;5092568;28;20024;-69
2021/06/23 14:24:46;;;;;;;11.63;2.67;;;;;;;;;;5091287;28;20400;-69
2021/06/23 14:27:12;;;;;;;18.27;3.03;;;;;;;;;;5070663;28;20024;-67
2021/06/23 14:29:39;;;;;;;11.93;2.80;;;;;;;;;;5092031;28;20027;-68
2021/06/23 14:32:05;;;;;;;13.82;2.97;;;;;;;;;;5090731;28;20105;-66
2021/06/23 14:34:31;;;;;;;14.35;3.35;;;;;;;;;;5090674;28;20016;-66
2021/06/23 14:36:57;;;;;;;;;;;;;;;;;;5088718;28;20386;-67
2021/06/23 14:39:23;;;;;;;11.50;2.28;;;;;;;;;;5090875;28;20010;-67
2021/06/23 14:41:49;;;;;;;13.68;2.72;;;;;;;;;;5073422;28;20038;-69
2021/06/23 14:44:16;;;;;;;;;;;;;;;;;;5091568;28;20042;-68
2021/06/23 14:46:44;;;;;;;12.18;3.55;;;;;;;;;;5091062;28;19924;-68
2021/06/23 14:49:13;;;;;;;12.02;2.75;;;;;;;;;;5090713;28;20423;-67
2021/06/23 14:51:39;;;;;;;5.57;2.30;;;;;;;;;;5091442;28;20028;-66
2021/06/23 14:54:05;;;;;;;;;;;;;;;;;;5073956;28;20094;-71
2021/06/23 14:56:31;;;;;;;7.55;2.38;;;;;;;;;;5090963;28;19908;-69
2021/06/23 14:58:57;;;;;;;17.10;2.33;;;;;;;;;;5090335;28;20028;-70
2021/06/23 15:01:24;;;;;;;15.43;2.25;;;;;;;;;;5091137;28;20032;-71